Time;durP1;ratioP1;P1;durP2;ratioP2;P2;SDS_P1;SDS_P2;PMS_P1;PMS_P2;Temp;Humidity;BMP_temperature;BMP_pressure;BME280_temperature;BME280_humidity;BME280_pressure;Samples;Min_cycle;Max_cycle;Signal;HPM_P1;HPM_P2
2023/07/06 00:01:02;;;;;;;2.50;2.40;;;22.90;53.80;;;;;;4986426;28;20434;-77
2023/07/06 00:03:31;;;;;;;2.83;2.50;;;22.90;53.70;;;;;;4991567;28;20480;-77
2023/07/06 00:06:00;;;;;;;3.07;2.70;;;22.90;53.80;;;;;;4986111;28;20473;-77
2023/07/06 00:08:28;;;;;;;3.30;2.77;;;22.90;53.90;;;;;;4999169;28;20816;-76
2023/07/06 00:10:56;;;;;;;3.80;2.90;;;22.90;54.00;;;;;;4981338;28;20440;-76
2023/07/06 00:13:25;;;;;;;4.80;2.80;;;22.90;54.00;;;;;;4992835;28;20495;-75
2023/07/06 00:15:54;;;;;;;3.60;2.30;;;22.90;54.00;;;;;;4991910;28;20461;-76
2023/07/06 00:18:22;;;;;;;2.80;2.60;;;22.90;54.20;;;;;;4983787;28;20484;-77
2023/07/06 00:20:50;;;;;;;3.17;2.80;;;22.90;53.90;;;;;;4988942;28;20503;-76
2023/07/06 00:23:18;;;;;;;3.30;2.73;;;22.80;53.90;;;;;;4986350;28;20555;-77
2023/07/06 00:25:47;;;;;;;2.77;2.57;;;22.80;54.00;;;;;;4990894;28;20539;-77
2023/07/06 00:28:16;;;;;;;3.37;2.37;;;22.80;54.10;;;;;;4990293;28;20989;-77
2023/07/06 00:30:55;;;;;;;3.00;2.80;;;22.80;54.10;;;;;;4987091;28;20548;-75
2023/07/06 00:33:24;;;;;;;11.70;3.30;;;22.80;54.20;;;;;;4983785;28;20449;-76
2023/07/06 00:35:52;;;;;;;3.00;2.70;;;22.80;55.00;;;;;;4984365;28;20511;-77
2023/07/06 00:38:23;;;;;;;3.30;3.00;;;22.70;54.30;;;;;;4987679;28;20472;-76
2023/07/06 00:40:52;;;;;;;3.80;3.00;;;22.70;54.30;;;;;;4980326;28;20438;-77
2023/07/06 00:43:21;;;;;;;3.90;3.00;;;22.70;54.40;;;;;;4988351;28;20593;-76
2023/07/06 00:45:55;;;;;;;5.20;2.83;;;22.70;54.50;;;;;;4985851;28;20548;-77
2023/07/06 00:48:27;;;;;;;2.83;2.50;;;22.70;54.60;;;;;;4982022;28;20481;-77
2023/07/06 00:50:58;;;;;;;2.97;2.70;;;22.70;54.70;;;;;;4990088;28;20477;-77
2023/07/06 00:53:28;;;;;;;3.10;2.83;;;22.60;54.70;;;;;;4975958;28;20430;-76
2023/07/06 00:55:58;;;;;;;2.97;2.67;;;22.60;54.80;;;;;;4986058;28;20516;-76
2023/07/06 00:58:28;;;;;;;3.83;3.27;;;22.60;54.90;;;;;;4994650;28;20440;-76
2023/07/06 01:00:58;;;;;;;3.57;2.90;;;22.60;55.00;;;;;;4994831;28;20520;-75
2023/07/06 01:03:26;;;;;;;4.33;3.13;;;22.60;54.80;;;;;;4993718;28;20472;-77
2023/07/06 01:05:59;;;;;;;2.70;2.50;;;22.60;55.00;;;;;;4994318;28;20465;-76
2023/07/06 01:08:27;;;;;;;2.93;2.67;;;22.60;54.80;;;;;;4994554;28;20536;-76
2023/07/06 01:10:55;;;;;;;3.50;3.20;;;22.50;54.90;;;;;;4993256;28;20483;-78
2023/07/06 01:13:24;;;;;;;5.43;2.73;;;22.50;55.00;;;;;;4987474;28;20492;-76
2023/07/06 01:15:55;;;;;;;3.50;2.90;;;22.50;54.90;;;;;;4994467;28;20519;-77
2023/07/06 01:18:28;;;;;;;3.30;2.87;;;22.50;54.90;;;;;;4986730;28;20477;-77
2023/07/06 01:20:57;;;;;;;9.33;2.30;;;22.50;55.00;;;;;;4994583;28;20484;-76
2023/07/06 01:23:49;;;;;;;3.30;2.90;;;22.50;55.00;;;;;;4994096;28;20924;-76
2023/07/06 01:26:25;;;;;;;2.50;2.40;;;22.40;54.80;;;;;;4993460;28;20477;-77
2023/07/06 01:29:21;;;;;;;4.23;3.57;;;22.40;55.10;;;;;;4981317;28;20481;-77
2023/07/06 01:31:51;;;;;;;4.93;3.20;;;22.40;54.90;;;;;;4990388;28;20833;-75
2023/07/06 01:34:24;;;;;;;3.30;3.00;;;22.40;54.90;;;;;;4991403;28;20500;-76
2023/07/06 01:36:56;;;;;;;2.90;2.57;;;22.40;55.00;;;;;;4994006;28;20441;-76
2023/07/06 01:39:26;;;;;;;3.47;3.17;;;22.40;55.00;;;;;;4993984;28;20476;-76
2023/07/06 01:42:25;;;;;;;3.90;3.20;;;22.40;55.10;;;;;;4993943;28;20437;-75
2023/07/06 01:44:55;;;;;;;3.50;3.20;;;22.30;55.30;;;;;;4986296;28;20513;-75
2023/07/06 01:47:24;;;;;;;3.13;2.80;;;22.30;55.40;;;;;;4993127;28;20520;-77
2023/07/06 01:49:52;;;;;;;4.83;2.90;;;22.30;55.40;;;;;;4994030;28;20441;-77
2023/07/06 01:52:27;;;;;;;3.07;2.87;;;22.30;55.20;;;;;;4994046;28;20473;-76
2023/07/06 01:55:00;;;;;;;4.40;3.27;;;22.30;55.10;;;;;;4993605;28;21044;-76
2023/07/06 01:57:29;;;;;;;4.47;3.60;;;22.30;55.50;;;;;;4993806;28;20437;-76
2023/07/06 01:59:58;;;;;;;2.93;2.73;;;22.30;55.30;;;;;;4993558;28;20445;-76
2023/07/06 02:02:30;;;;;;;3.80;2.90;;;22.30;55.30;;;;;;4990475;28;20484;-76
2023/07/06 02:05:00;;;;;;;4.03;2.83;;;22.20;55.40;;;;;;4993836;28;20480;-77
2023/07/06 02:07:28;;;;;;;3.43;3.13;;;22.20;55.40;;;;;;4993186;28;20453;-76
2023/07/06 02:09:56;;;;;;;7.50;3.20;;;22.20;55.50;;;;;;4991572;28;20532;-77
2023/07/06 02:12:24;;;;;;;3.70;3.00;;;22.20;55.20;;;;;;4993287;28;20473;-77
2023/07/06 02:14:53;;;;;;;5.27;3.20;;;22.20;55.20;;;;;;4992737;28;20992;-76
2023/07/06 02:17:22;;;;;;;3.70;3.40;;;22.20;55.40;;;;;;4993559;28;20437;-77
2023/07/06 02:19:51;;;;;;;4.80;3.00;;;22.20;55.10;;;;;;4984867;28;20506;-76
2023/07/06 02:22:21;;;;;;;4.53;3.00;;;22.10;55.30;;;;;;4991849;28;20520;-77
2023/07/06 02:24:49;;;;;;;3.50;2.80;;;22.10;55.40;;;;;;4992944;28;20477;-75
2023/07/06 02:27:16;;;;;;;2.93;2.73;;;22.10;55.30;;;;;;5000829;28;20536;-76
2023/07/06 02:29:45;;;;;;;4.30;3.20;;;22.10;55.20;;;;;;4993451;28;20896;-76
2023/07/06 02:32:15;;;;;;;3.70;3.40;;;22.10;55.50;;;;;;4993114;28;20454;-76
2023/07/06 02:34:43;;;;;;;3.33;3.03;;;22.10;55.40;;;;;;4992931;28;20488;-76
2023/07/06 02:37:12;;;;;;;4.60;3.47;;;22.10;55.20;;;;;;4988710;28;20496;-76
2023/07/06 02:39:41;;;;;;;2.80;2.60;;;22.10;55.70;;;;;;4992774;28;20453;-76
2023/07/06 02:42:14;;;;;;;2.90;2.70;;;22.10;55.50;;;;;;4993168;28;20457;-76
2023/07/06 02:44:43;;;;;;;3.63;3.00;;;22.10;55.30;;;;;;4992639;28;20501;-76
2023/07/06 02:47:11;;;;;;;3.90;3.27;;;22.10;55.40;;;;;;4992682;28;20471;-75
2023/07/06 02:49:38;;;;;;;3.57;2.93;;;22.10;55.30;;;;;;4992767;28;20441;-75
2023/07/06 02:52:07;;;;;;;4.50;3.00;;;22.00;55.40;;;;;;4982978;28;20504;-76
2023/07/06 02:54:37;;;;;;;4.10;3.23;;;22.00;55.50;;;;;;4991908;28;20440;-77
2023/07/06 02:57:05;;;;;;;3.40;3.20;;;22.00;55.40;;;;;;4992575;28;20513;-76
2023/07/06 02:59:34;;;;;;;2.87;2.67;;;22.00;55.60;;;;;;4992630;28;20426;-76
2023/07/06 03:02:03;;;;;;;3.40;2.97;;;22.00;55.40;;;;;;4999447;28;20524;-76
2023/07/06 03:04:32;;;;;;;3.70;3.40;;;22.00;55.20;;;;;;4994442;28;20526;-76
2023/07/06 03:06:59;;;;;;;3.43;3.13;;;22.00;56.10;;;;;;4996727;28;20434;-75
2023/07/06 03:09:28;;;;;;;3.70;2.90;;;22.00;55.50;;;;;;4996983;28;20489;-76
2023/07/06 03:11:57;;;;;;;3.33;2.70;;;22.00;55.50;;;;;;4990342;28;20449;-75
2023/07/06 03:14:25;;;;;;;3.43;3.13;;;22.00;55.60;;;;;;4992312;28;20528;-76
2023/07/06 03:16:54;;;;;;;3.07;2.87;;;22.00;55.50;;;;;;4992112;28;20536;-77
2023/07/06 03:19:22;;;;;;;4.43;2.90;;;21.90;55.60;;;;;;4992533;28;20445;-76
2023/07/06 03:21:52;;;;;;;2.83;2.63;;;21.90;55.60;;;;;;4992320;28;20524;-76
2023/07/06 03:24:20;;;;;;;3.10;2.80;;;21.90;55.70;;;;;;4990952;28;20469;-76
2023/07/06 03:26:48;;;;;;;3.23;3.03;;;21.90;55.60;;;;;;4985921;28;20541;-75
2023/07/06 03:29:18;;;;;;;3.67;3.37;;;21.90;55.60;;;;;;4989094;28;20537;-76
2023/07/06 03:31:46;;;;;;;3.40;3.10;;;21.90;55.50;;;;;;4992224;28;20437;-75
2023/07/06 03:34:13;;;;;;;3.67;3.37;;;21.90;55.50;;;;;;4992103;28;20426;-75
2023/07/06 03:36:41;;;;;;;3.10;2.80;;;21.90;56.00;;;;;;4991888;28;20520;-76
2023/07/06 03:39:12;;;;;;;5.60;3.30;;;21.90;55.60;;;;;;4992123;28;20528;-76
2023/07/06 03:41:40;;;;;;;3.97;3.67;;;21.90;55.40;;;;;;4991628;28;20441;-76
2023/07/06 03:44:08;;;;;;;3.33;3.03;;;21.90;55.60;;;;;;4987216;28;20472;-75
2023/07/06 03:46:38;;;;;;;4.10;3.70;;;21.90;55.40;;;;;;4991473;28;20911;-75
2023/07/06 03:49:07;;;;;;;3.20;3.00;;;21.90;55.30;;;;;;4991759;28;20453;-74
2023/07/06 03:51:35;;;;;;;3.40;3.10;;;21.90;55.50;;;;;;4991741;28;20541;-76
2023/07/06 03:54:06;;;;;;;3.60;3.30;;;21.90;55.40;;;;;;4988817;28;20545;-76
2023/07/06 03:56:35;;;;;;;2.87;2.67;;;21.90;55.20;;;;;;4991585;28;20476;-75
2023/07/06 03:59:05;;;;;;;3.50;3.20;;;21.90;55.50;;;;;;4991810;28;20448;-77
2023/07/06 04:01:33;;;;;;;3.23;2.97;;;22.00;55.50;;;;;;4988248;28;20456;-76
2023/07/06 04:04:05;;;;;;;3.10;2.90;;;22.00;55.20;;;;;;4991929;28;20441;-76
2023/07/06 04:06:41;;;;;;;3.20;2.90;;;22.00;55.40;;;;;;4991580;28;21032;-76
2023/07/06 04:09:10;;;;;;;5.47;3.53;;;22.00;55.20;;;;;;4991241;28;20464;-76
2023/07/06 04:11:38;;;;;;;5.10;3.40;;;22.10;55.00;;;;;;4991448;28;20532;-76
2023/07/06 04:14:06;;;;;;;5.07;3.30;;;22.10;55.20;;;;;;4991651;28;20520;-76
2023/07/06 04:16:34;;;;;;;5.03;3.10;;;22.10;55.00;;;;;;4991460;28;20496;-77
2023/07/06 04:19:04;;;;;;;3.40;3.10;;;22.10;55.10;;;;;;4988092;28;20460;-77
2023/07/06 04:21:32;;;;;;;3.00;2.80;;;22.10;55.10;;;;;;4991382;28;20437;-75
2023/07/06 04:24:00;;;;;;;3.03;2.83;;;22.10;55.00;;;;;;4991481;28;20449;-76
2023/07/06 04:26:28;;;;;;;3.30;3.00;;;22.10;54.90;;;;;;4990995;28;20473;-75
2023/07/06 04:28:56;;;;;;;4.10;2.80;;;22.10;54.80;;;;;;4991384;28;20536;-75
2023/07/06 04:31:24;;;;;;;3.40;3.13;;;22.10;55.00;;;;;;4992129;28;20479;-76
2023/07/06 04:33:52;;;;;;;3.20;3.00;;;22.20;55.20;;;;;;4989551;28;20547;-75
2023/07/06 04:36:21;;;;;;;3.40;3.10;;;22.20;54.80;;;;;;4995135;28;20513;-76
2023/07/06 04:38:49;;;;;;;3.40;3.20;;;22.20;55.00;;;;;;4995440;28;20528;-76
2023/07/06 04:41:17;;;;;;;3.70;3.30;;;22.20;55.00;;;;;;4995135;28;20534;-76
2023/07/06 04:43:45;;;;;;;3.03;2.83;;;22.20;54.50;;;;;;4995048;28;20463;-77
2023/07/06 04:46:13;;;;;;;3.10;2.90;;;22.20;55.00;;;;;;4994673;28;20512;-76
2023/07/06 04:48:44;;;;;;;2.97;2.77;;;22.30;54.70;;;;;;4994901;28;20549;-76
2023/07/06 04:51:12;;;;;;;4.40;3.60;;;22.30;54.70;;;;;;4993129;28;20447;-77
2023/07/06 04:53:44;;;;;;;3.03;2.73;;;22.30;54.70;;;;;;4988412;28;20435;-76
2023/07/06 04:56:12;;;;;;;3.27;2.97;;;22.30;54.70;;;;;;4991107;28;20435;-77
2023/07/06 04:58:41;;;;;;;3.20;2.90;;;22.30;54.70;;;;;;4994219;28;20465;-76
2023/07/06 05:01:10;;;;;;;3.17;2.97;;;22.40;54.70;;;;;;4994497;28;20472;-76
2023/07/06 05:03:39;;;;;;;3.30;3.00;;;22.40;54.80;;;;;;4994861;28;20512;-76
2023/07/06 05:06:08;;;;;;;3.03;2.83;;;22.40;54.60;;;;;;4994489;28;20978;-76
2023/07/06 05:08:36;;;;;;;3.23;3.03;;;22.40;54.40;;;;;;4996817;28;20485;-76
2023/07/06 05:11:06;;;;;;;3.40;3.10;;;22.40;54.60;;;;;;4980762;28;20437;-77
2023/07/06 05:13:33;;;;;;;2.77;2.57;;;22.50;54.70;;;;;;4994812;28;20548;-76
2023/07/06 05:16:02;;;;;;;5.73;3.27;;;22.50;54.60;;;;;;4994636;28;20457;-77
2023/07/06 05:18:30;;;;;;;3.60;3.20;;;22.60;54.60;;;;;;4994627;28;20515;-77
2023/07/06 05:20:58;;;;;;;3.07;2.87;;;22.60;54.50;;;;;;4994197;28;20528;-77
2023/07/06 05:23:27;;;;;;;3.20;2.93;;;22.60;54.40;;;;;;4994532;28;20437;-77
2023/07/06 05:25:55;;;;;;;3.37;2.97;;;22.60;54.40;;;;;;4990463;28;20567;-76
2023/07/06 05:28:25;;;;;;;3.57;3.27;;;22.70;54.50;;;;;;4994297;28;20454;-76
2023/07/06 05:30:53;;;;;;;3.30;3.00;;;22.70;54.20;;;;;;4987273;28;20485;-76
2023/07/06 05:33:21;;;;;;;3.60;3.10;;;22.80;54.40;;;;;;4994104;28;21017;-77
2023/07/06 05:35:48;;;;;;;3.73;3.00;;;22.80;54.30;;;;;;4993584;28;20489;-77
2023/07/06 05:38:19;;;;;;;3.40;3.10;;;22.80;54.20;;;;;;4993715;28;20441;-77
2023/07/06 05:40:47;;;;;;;2.90;2.80;;;22.80;54.20;;;;;;4988308;28;20547;-76
2023/07/06 05:43:16;;;;;;;3.23;2.90;;;22.90;54.20;;;;;;4986727;28;20450;-76
2023/07/06 05:45:46;;;;;;;3.40;3.10;;;22.90;54.00;;;;;;4989634;28;20469;-76
2023/07/06 05:48:14;;;;;;;3.00;2.80;;;22.90;54.00;;;;;;4994179;28;20489;-76
2023/07/06 05:50:41;;;;;;;2.30;2.20;;;23.00;54.00;;;;;;4993058;28;20500;-77
2023/07/06 05:53:09;;;;;;;3.40;3.10;;;23.00;53.90;;;;;;4994011;28;20449;-77
2023/07/06 05:55:40;;;;;;;2.93;2.70;;;23.00;53.90;;;;;;4993824;28;20461;-77
2023/07/06 05:58:08;;;;;;;3.07;2.87;;;23.10;54.00;;;;;;4988179;28;20457;-76
2023/07/06 06:00:36;;;;;;;2.87;2.67;;;23.10;53.80;;;;;;4988597;28;20458;-77
2023/07/06 06:03:06;;;;;;;3.33;3.00;;;23.20;53.80;;;;;;4992885;28;20584;-77
2023/07/06 06:09:22;;;;;;;3.10;2.90;;;23.30;53.50;;;;;;4998340;28;20496;-77
2023/07/06 06:11:51;;;;;;;3.10;2.80;;;23.30;53.60;;;;;;5000028;28;20471;-77
2023/07/06 06:14:19;;;;;;;3.70;2.60;;;23.30;53.40;;;;;;4993151;28;20573;-77
2023/07/06 06:16:47;;;;;;;4.60;3.10;;;23.30;53.40;;;;;;4996437;28;20427;-76
2023/07/06 06:19:16;;;;;;;4.33;3.10;;;23.30;53.50;;;;;;5012944;28;20459;-77
2023/07/06 06:21:45;;;;;;;2.80;2.70;;;23.40;53.50;;;;;;5003151;28;20473;-76
2023/07/06 06:24:13;;;;;;;3.33;3.07;;;23.40;53.50;;;;;;4986551;28;20507;-77
2023/07/06 06:26:42;;;;;;;2.80;2.60;;;23.50;53.60;;;;;;4981576;28;20485;-77
2023/07/06 06:29:10;;;;;;;3.10;2.90;;;23.50;53.50;;;;;;4981746;28;20417;-77
2023/07/06 06:31:42;;;;;;;3.30;2.87;;;23.50;53.30;;;;;;4982478;28;20439;-76
2023/07/06 06:34:11;;;;;;;2.80;2.60;;;23.60;53.20;;;;;;4983089;28;20438;-76
2023/07/06 06:36:41;;;;;;;3.60;2.90;;;23.60;53.30;;;;;;4989906;28;20481;-76
2023/07/06 06:39:09;;;;;;;2.93;2.60;;;23.70;53.20;;;;;;4985137;28;20520;-77
2023/07/06 06:41:39;;;;;;;3.00;2.70;;;23.70;53.20;;;;;;4988210;28;20488;-77
2023/07/06 06:44:06;;;;;;;2.80;2.70;;;23.80;53.00;;;;;;4993990;28;20508;-78
2023/07/06 06:46:35;;;;;;;3.87;3.20;;;23.90;53.00;;;;;;4993859;28;20504;-77
2023/07/06 06:49:03;;;;;;;3.07;2.80;;;23.90;52.90;;;;;;4993251;28;20418;-76
2023/07/06 06:51:31;;;;;;;3.10;2.77;;;23.90;53.00;;;;;;4993247;28;20540;-77
2023/07/06 06:54:00;;;;;;;4.80;3.00;;;24.00;52.80;;;;;;4985051;28;20446;-77
2023/07/06 06:56:29;;;;;;;3.23;2.97;;;24.00;52.80;;;;;;4992912;28;20672;-77
2023/07/06 06:58:57;;;;;;;4.63;4.07;;;24.00;53.00;;;;;;4985488;28;20553;-76
2023/07/06 07:01:25;;;;;;;4.33;3.93;;;24.10;52.70;;;;;;4986443;28;20480;-77
2023/07/06 07:03:53;;;;;;;6.90;5.20;;;24.00;52.70;;;;;;4992526;28;20437;-77
2023/07/06 07:06:22;;;;;;;28.63;6.57;;;24.00;52.70;;;;;;4992262;28;20520;-77
2023/07/06 07:08:50;;;;;;;10.60;6.57;;;24.00;52.90;;;;;;4991092;28;20449;-77
2023/07/06 07:11:20;;;;;;;13.23;7.63;;;24.00;53.20;;;;;;4991426;28;20445;-77
2023/07/06 07:13:51;;;;;;;14.37;8.73;;;24.00;52.70;;;;;;4992615;28;20408;-77
2023/07/06 07:16:20;;;;;;;13.03;9.60;;;24.00;52.70;;;;;;4986986;28;20470;-77
2023/07/06 07:18:48;;;;;;;16.50;11.23;;;24.00;52.70;;;;;;4990092;28;20449;-77
2023/07/06 07:21:18;;;;;;;20.43;11.93;;;24.00;52.70;;;;;;4992154;28;20504;-76
2023/07/06 07:23:47;;;;;;;19.63;13.47;;;24.00;52.70;;;;;;4990503;28;20489;-77
2023/07/06 07:26:16;;;;;;;19.87;12.97;;;24.00;52.60;;;;;;4988317;28;20572;-78
2023/07/06 07:28:47;;;;;;;21.83;13.80;;;24.10;52.70;;;;;;4992238;28;20492;-77
2023/07/06 07:31:15;;;;;;;23.03;15.10;;;24.10;52.70;;;;;;5016825;23;20489;-78
2023/07/06 07:33:43;;;;;;;23.03;14.57;;;24.20;52.70;;;;;;4990617;28;20485;-77
2023/07/06 07:36:12;;;;;;;29.27;15.90;;;24.30;52.70;;;;;;4991991;28;20420;-78
2023/07/06 07:38:40;;;;;;;22.17;15.20;;;24.30;52.70;;;;;;4992367;28;20441;-79
2023/07/06 07:41:13;;;;;;;24.80;15.50;;;24.30;52.70;;;;;;4985203;28;20557;-79
2023/07/06 07:43:42;;;;;;;23.40;15.17;;;24.40;52.90;;;;;;4973781;28;20457;-77
2023/07/06 07:46:12;;;;;;;22.30;15.73;;;24.40;53.10;;;;;;4974263;28;20552;-77
2023/07/06 07:48:45;;;;;;;23.60;14.67;;;24.40;53.20;;;;;;4973660;28;20461;-79
2023/07/06 07:51:13;;;;;;;24.47;14.90;;;24.50;53.30;;;;;;4974399;28;20470;-79
2023/07/06 07:53:44;;;;;;;25.27;13.97;;;24.60;53.40;;;;;;4971084;28;20485;-78
2023/07/06 07:56:15;;;;;;;20.73;14.93;;;24.70;53.40;;;;;;4974872;28;20441;-79
2023/07/06 07:58:46;;;;;;;19.90;14.10;;;24.80;53.40;;;;;;4974431;28;20459;-80
2023/07/06 08:01:18;;;;;;;21.00;14.40;;;24.90;53.40;;;;;;4975224;28;20456;-78
2023/07/06 08:03:46;;;;;;;17.67;12.70;;;25.10;53.30;;;;;;4973502;28;20437;-81
2023/07/06 08:06:16;;;;;;;20.67;12.70;;;25.20;53.20;;;;;;4974139;28;20462;-77
2023/07/06 08:08:44;;;;;;;17.77;12.73;;;25.40;52.90;;;;;;4973155;28;20470;-80
2023/07/06 08:11:14;;;;;;;18.47;12.43;;;25.50;53.00;;;;;;4975058;28;20476;-80
2023/07/06 08:13:42;;;;;;;20.60;13.30;;;25.60;52.80;;;;;;4974968;28;20485;-79
2023/07/06 08:16:12;;;;;;;16.53;12.43;;;25.70;52.70;;;;;;4970148;28;20537;-79
2023/07/06 08:18:42;;;;;;;17.73;12.03;;;25.90;52.50;;;;;;4978689;28;20437;-79
2023/07/06 08:21:11;;;;;;;18.30;11.70;;;25.90;52.50;;;;;;4969843;28;20465;-80
2023/07/06 08:23:59;;;;;;;16.20;11.20;;;26.10;52.40;;;;;;4961991;28;20427;-79
2023/07/06 08:26:27;;;;;;;15.70;10.83;;;26.30;52.20;;;;;;4968588;28;20479;-78
2023/07/06 08:28:54;;;;;;;15.10;10.30;;;26.40;52.20;;;;;;4972034;28;20469;-79
2023/07/06 08:31:24;;;;;;;13.27;9.90;;;26.60;52.20;;;;;;4977714;28;20488;-81
2023/07/06 08:33:54;;;;;;;14.07;10.47;;;26.70;51.70;;;;;;4975921;28;20428;-79
2023/07/06 08:36:22;;;;;;;14.33;10.40;;;26.90;51.50;;;;;;4968120;28;20435;-80
2023/07/06 08:38:54;;;;;;;14.43;10.40;;;26.90;51.50;;;;;;4980453;28;20433;-79
2023/07/06 08:41:29;;;;;;;14.10;10.13;;;26.90;51.40;;;;;;4968480;28;20561;-77
2023/07/06 08:43:58;;;;;;;12.13;8.83;;;26.90;51.30;;;;;;4971834;28;20444;-78
2023/07/06 08:46:28;;;;;;;11.53;8.80;;;26.80;51.40;;;;;;4972203;28;20507;-79
2023/07/06 08:48:57;;;;;;;11.03;8.27;;;26.70;51.60;;;;;;4980013;28;20460;-78
2023/07/06 08:51:30;;;;;;;10.63;8.33;;;26.70;51.80;;;;;;4970952;28;20943;-76
2023/07/06 08:54:00;;;;;;;11.93;7.43;;;26.60;52.20;;;;;;4977617;28;20421;-79
2023/07/06 08:56:29;;;;;;;10.70;7.83;;;26.60;52.20;;;;;;4974826;28;20463;-79
2023/07/06 08:58:57;;;;;;;9.93;8.20;;;26.60;52.20;;;;;;4989988;28;20499;-78
2023/07/06 09:01:26;;;;;;;9.33;7.77;;;26.60;52.10;;;;;;4973483;28;20518;-79
2023/07/06 09:03:56;;;;;;;10.20;8.10;;;26.70;52.20;;;;;;4975884;28;20459;-79
2023/07/06 09:06:27;;;;;;;10.63;7.50;;;26.70;52.10;;;;;;4980687;28;20517;-78
2023/07/06 09:09:01;;;;;;;10.47;7.93;;;26.70;52.20;;;;;;4972515;28;20543;-78
2023/07/06 09:11:31;;;;;;;10.07;7.73;;;26.70;52.00;;;;;;4978670;28;20448;-78
2023/07/06 09:14:00;;;;;;;9.00;7.90;;;26.70;51.90;;;;;;4975173;28;20460;-78
2023/07/06 09:16:30;;;;;;;8.73;7.07;;;26.70;51.90;;;;;;4970060;28;20432;-79
2023/07/06 09:18:58;;;;;;;8.47;7.00;;;26.60;52.20;;;;;;4973370;28;20413;-79
2023/07/06 09:21:27;;;;;;;11.10;7.70;;;26.60;52.10;;;;;;4982404;28;20628;-78
2023/07/06 09:23:57;;;;;;;8.97;7.30;;;26.70;52.10;;;;;;4975189;28;20534;-79
2023/07/06 09:26:29;;;;;;;9.20;6.90;;;26.80;52.20;;;;;;4975390;28;20464;-78
2023/07/06 09:29:15;;;;;;;8.97;7.10;;;26.90;52.40;;;;;;4974927;28;20539;-78
2023/07/06 09:31:44;;;;;;;9.37;6.73;;;26.90;51.70;;;;;;4975173;28;20471;-78
2023/07/06 09:34:26;;;;;;;9.60;6.50;;;26.90;51.60;;;;;;4974360;28;20458;-78
2023/07/06 09:36:55;;;;;;;9.83;6.50;;;26.90;51.40;;;;;;4968641;28;20430;-78
2023/07/06 09:39:24;;;;;;;9.43;6.67;;;26.90;51.60;;;;;;4966773;28;20463;-78
2023/07/06 09:41:53;;;;;;;9.67;6.70;;;26.90;51.40;;;;;;4974521;28;20441;-78
2023/07/06 09:44:25;;;;;;;8.77;6.67;;;27.00;51.60;;;;;;4974918;28;20430;-78
2023/07/06 09:46:55;;;;;;;8.17;6.30;;;27.00;51.40;;;;;;4975029;28;20507;-78
2023/07/06 09:49:26;;;;;;;8.83;6.20;;;27.20;51.80;;;;;;4974827;28;20413;-78
2023/07/06 09:51:57;;;;;;;10.47;6.60;;;27.40;51.80;;;;;;4972187;28;20487;-79
2023/07/06 09:54:27;;;;;;;7.77;6.03;;;27.80;51.50;;;;;;4974589;28;20429;-79
2023/07/06 09:56:55;;;;;;;8.07;5.37;;;28.00;51.00;;;;;;4974148;28;20516;-78
2023/07/06 09:59:23;;;;;;;9.20;6.70;;;28.20;50.40;;;;;;4967042;28;20963;-78
2023/07/06 10:01:54;;;;;;;7.73;6.00;;;28.40;50.10;;;;;;4966379;28;20524;-78
2023/07/06 10:04:32;;;;;;;9.20;6.30;;;28.60;49.90;;;;;;4974617;28;20501;-78
2023/07/06 10:07:08;;;;;;;7.43;5.70;;;28.70;49.70;;;;;;4974859;28;20551;-78
2023/07/06 10:09:38;;;;;;;6.50;5.57;;;28.80;49.30;;;;;;4976474;28;20477;-78
2023/07/06 10:12:09;;;;;;;6.77;5.77;;;29.00;49.20;;;;;;4982607;28;21042;-77
2023/07/06 10:14:39;;;;;;;6.73;5.30;;;29.20;48.90;;;;;;4968477;28;20508;-79
2023/07/06 10:17:18;;;;;;;5.30;4.80;;;29.40;48.70;;;;;;4973087;28;20469;-78
2023/07/06 10:19:51;;;;;;;7.63;5.37;;;29.40;48.30;;;;;;4974536;28;20515;-78
2023/07/06 10:22:22;;;;;;;7.70;5.50;;;29.40;48.20;;;;;;4967100;28;20456;-78
2023/07/06 10:24:52;;;;;;;5.03;4.60;;;29.30;48.00;;;;;;4974528;28;20534;-78
2023/07/06 10:27:24;;;;;;;5.40;4.90;;;29.30;48.00;;;;;;4971269;28;20460;-79
2023/07/06 10:29:54;;;;;;;5.90;5.10;;;29.50;48.30;;;;;;4973893;28;20524;-79
2023/07/06 10:32:24;;;;;;;6.93;4.50;;;29.80;48.50;;;;;;4978916;28;20964;-79
2023/07/06 10:34:54;;;;;;;5.13;4.50;;;30.10;48.10;;;;;;4974564;28;20458;-79
2023/07/06 10:37:24;;;;;;;4.73;4.30;;;30.30;47.30;;;;;;4973955;28;20444;-79
2023/07/06 10:40:17;;;;;;;6.57;5.00;;;30.30;47.00;;;;;;4974534;28;20469;-79
2023/07/06 10:42:49;;;;;;;4.77;4.27;;;30.20;46.90;;;;;;4960761;28;20421;-79
2023/07/06 10:45:39;;;;;;;4.80;4.40;;;30.20;47.00;;;;;;4975337;28;20508;-79
2023/07/06 10:48:15;;;;;;;5.37;4.87;;;30.50;47.40;;;;;;4974720;28;20876;-79
2023/07/06 10:50:50;;;;;;;4.73;4.33;;;30.80;46.60;;;;;;4975035;28;20553;-80
2023/07/06 10:53:24;;;;;;;4.43;4.03;;;31.00;46.40;;;;;;4974651;28;20553;-79
2023/07/06 10:55:58;;;;;;;5.87;4.30;;;31.30;46.20;;;;;;4974126;28;20472;-78
2023/07/06 10:58:27;;;;;;;5.43;4.37;;;31.50;45.70;;;;;;4971487;28;20870;-79
2023/07/06 11:00:56;;;;;;;6.90;4.23;;;31.70;45.70;;;;;;4980722;28;20552;-79
2023/07/06 11:03:27;;;;;;;4.03;3.73;;;31.80;45.10;;;;;;4969912;28;20463;-79
2023/07/06 11:05:58;;;;;;;4.60;4.03;;;32.10;45.10;;;;;;4976303;28;20441;-79
2023/07/06 11:09:03;;;;;;;4.50;3.67;;;32.30;44.60;;;;;;4967335;28;20470;-80
2023/07/06 11:11:34;;;;;;;4.30;3.60;;;32.30;44.20;;;;;;4975489;28;20488;-78
2023/07/06 11:14:30;;;;;;;4.20;3.90;;;32.30;43.90;;;;;;4975511;28;20465;-79
2023/07/06 11:17:03;;;;;;;6.40;4.13;;;32.30;43.80;;;;;;4976968;28;20438;-79
2023/07/06 11:19:32;;;;;;;6.20;4.37;;;32.20;43.60;;;;;;4974461;28;20431;-79
2023/07/06 11:22:04;;;;;;;4.30;3.90;;;32.30;44.40;;;;;;4971268;28;20489;-80
2023/07/06 11:24:36;;;;;;;3.67;3.47;;;32.60;44.50;;;;;;4974435;28;20434;-79
2023/07/06 11:27:06;;;;;;;3.60;3.30;;;33.60;43.50;;;;;;4974382;28;20434;-80
2023/07/06 11:29:34;;;;;;;3.93;3.37;;;33.70;41.40;;;;;;4974353;28;20470;-80
2023/07/06 11:32:10;;;;;;;3.57;3.23;;;34.60;41.70;;;;;;4974317;28;20524;-79
2023/07/06 11:34:41;;;;;;;3.20;3.00;;;35.40;40.30;;;;;;4974275;28;20449;-80
2023/07/06 11:37:12;;;;;;;3.07;2.87;;;36.10;39.20;;;;;;4973870;28;20529;-80
2023/07/06 11:39:49;;;;;;;3.33;3.10;;;36.10;37.90;;;;;;4968028;28;20443;-80
2023/07/06 11:42:25;;;;;;;3.20;2.93;;;35.60;38.30;;;;;;4972830;28;20485;-80
2023/07/06 11:44:53;;;;;;;3.80;3.50;;;35.20;38.60;;;;;;4974203;28;20445;-79
2023/07/06 11:47:30;;;;;;;3.30;3.10;;;34.70;39.30;;;;;;4973883;28;20541;-79
2023/07/06 11:49:59;;;;;;;3.10;2.90;;;34.30;39.90;;;;;;4973121;28;20470;-80
2023/07/06 11:52:29;;;;;;;3.97;3.23;;;33.90;40.30;;;;;;4966293;28;20458;-80
2023/07/06 11:55:07;;;;;;;3.57;3.27;;;33.50;40.70;;;;;;4972158;28;20451;-79
2023/07/06 11:57:43;;;;;;;3.40;3.20;;;33.10;41.20;;;;;;4966740;28;20484;-80
2023/07/06 12:00:32;;;;;;;5.63;3.10;;;32.70;41.80;;;;;;4974490;28;20525;-80
2023/07/06 12:03:03;;;;;;;3.67;3.37;;;32.40;42.30;;;;;;4974870;28;20438;-79
2023/07/06 12:09:18;;;;;;;4.00;3.40;;;31.80;43.20;;;;;;4970032;28;20484;-79
2023/07/06 12:12:00;;;;;;;3.37;3.17;;;31.60;43.40;;;;;;4973351;28;20493;-79
2023/07/06 12:14:30;;;;;;;3.73;3.50;;;31.30;43.80;;;;;;4965344;28;20952;-78
2023/07/06 12:16:59;;;;;;;3.60;3.20;;;31.20;43.90;;;;;;4972718;28;20994;-79
2023/07/06 12:19:28;;;;;;;3.37;3.07;;;31.00;44.10;;;;;;4972623;28;20516;-79
2023/07/06 12:21:57;;;;;;;3.20;3.00;;;30.90;44.40;;;;;;4972822;28;20883;-79
2023/07/06 12:24:26;;;;;;;3.30;3.10;;;30.80;44.50;;;;;;4972851;28;20454;-79
2023/07/06 12:26:58;;;;;;;3.70;3.50;;;30.60;44.60;;;;;;4970520;28;20489;-79
2023/07/06 12:29:29;;;;;;;3.00;2.80;;;30.50;44.90;;;;;;4972281;28;20506;-80
2023/07/06 12:32:00;;;;;;;3.57;3.27;;;30.40;44.90;;;;;;4972015;28;20536;-79
2023/07/06 12:34:30;;;;;;;3.37;3.17;;;30.30;44.90;;;;;;4972295;28;20454;-79
2023/07/06 12:37:00;;;;;;;4.20;3.50;;;30.20;45.00;;;;;;4972880;28;20425;-79
2023/07/06 12:39:28;;;;;;;3.37;3.10;;;30.20;45.00;;;;;;4971987;28;20417;-77
2023/07/06 12:42:00;;;;;;;3.87;3.50;;;30.10;45.10;;;;;;4972543;28;20540;-79
2023/07/06 12:44:29;;;;;;;6.60;3.17;;;30.10;45.20;;;;;;4969799;28;20549;-76
2023/07/06 12:47:02;;;;;;;3.23;2.93;;;30.10;45.20;;;;;;4971770;28;20451;-79
2023/07/06 12:49:33;;;;;;;3.80;3.27;;;30.20;45.10;;;;;;4971981;28;20516;-79
2023/07/06 12:52:02;;;;;;;3.03;2.83;;;30.30;45.00;;;;;;4972095;28;20503;-79
2023/07/06 12:54:30;;;;;;;3.77;3.13;;;30.60;44.90;;;;;;4976005;28;20474;-78
2023/07/06 12:57:02;;;;;;;3.27;3.07;;;31.10;44.60;;;;;;4976129;28;20503;-79
2023/07/06 12:59:34;;;;;;;3.03;2.93;;;31.60;43.90;;;;;;4974695;28;20950;-79
2023/07/06 13:02:08;;;;;;;2.97;2.83;;;32.10;43.30;;;;;;4964885;28;20549;-80
2023/07/06 13:04:42;;;;;;;3.63;3.23;;;32.60;42.60;;;;;;4975935;28;20450;-80
2023/07/06 13:07:11;;;;;;;3.17;2.97;;;32.90;41.60;;;;;;4975795;28;20946;-79